Talkeetna, AK (99676)

11:55 AM AKST on January 20, 2017 (GMT -0900)
Talkeetna | | Change Station

Elev 358 ft 62.32 °N, 150.09 °W | Updated 59 minutes ago

Light Snow
Light Snow
7 °F
Feels Like -8 °F
N
12
Wind Variable Wind from NNE

Today
High -- | Low -- °F
--% Chance of Precip.
Yesterday
High -- | Low -- °F
Precip. -- in
Pressure 29.55 in
Visibility 1.8 miles
Clouds Overcast 2700 ft
Windchill -8 °F
Dew Point -2 °F
Humidity 67%
Rainfall 0.00 in
Snow Depth Not available.
9:56 AM 4:27 PM
Last Quarter, 41% visible
SPECI PATK 201956Z 02010KT 1 3/4SM -SN OVC027 M14/M19 A2955 RMK AO2 P0000 T11391189 $
Pressure 29.55 in
Visibility 1.8 miles
Clouds Overcast 2700 ft
Windchill -8 °F
Dew Point -2 °F
Humidity 67%
Rainfall 0.00 in
Snow Depth Not available.
9:56 AM 4:27 PM
Last Quarter, 41% visible
SPECI PATK 201956Z 02010KT 1 3/4SM -SN OVC027 M14/M19 A2955 RMK AO2 P0000 T11391189 $

Get Your Daily Forecast Email!

Thanks for signing up!

Be on the lookout for a verification email in your inbox.

You'll start receiving the daily forecast at 8 AM.

×

10-Day Weather Forecast

Almanac

Astronomy

Jan. 20, 2017 Rise Set
Actual Time
Civil Twilight
Nautical Twilight
Astronomical Twilight
Moon
Length of Visible Light
Length of Day
Tomorrow will be .
, % of the Moon is Illuminated

Today's Extremes

State Highs State Lows

Community

WunderPhotos

Upload Photos

1,962,540 photos uploaded!

WunderBlog® & News

Nearby

Air Quality

  Air Quality AQ Index Pollutant
Not available.

Snow Depth

Station Depth Elevation

Earthquake Activity

City Distance Mag. Time & Date
Minimum magnitude displayed is 2.5.

Coastal Water Temperatures

Place Temperature

Stations

Nearby Weather Stations

Station Location Temp. Windchill Dew Point Humidity Wind Precip. Elev Updated Type
                   

Watches & Warnings

There are currently no watches in effect.